createdAt,value
2023-04-22T00:05:03.279Z,8.68
2023-04-22T00:07:32.462Z,7.80
2023-04-22T00:10:00.765Z,8.60
2023-04-22T00:12:27.821Z,9.35
2023-04-22T00:17:47.692Z,9.00
2023-04-22T00:20:49.957Z,9.43
2023-04-22T00:28:58.169Z,9.85
2023-04-22T00:31:30.010Z,9.00
2023-04-22T00:33:59.157Z,9.40
2023-04-22T00:36:28.156Z,8.73
2023-04-22T00:39:01.912Z,9.32
2023-04-22T00:41:35.041Z,10.10
2023-04-22T00:46:49.452Z,10.02
2023-04-22T00:49:20.200Z,9.60
2023-04-22T00:51:49.394Z,9.50
2023-04-22T00:54:17.451Z,10.30
2023-04-22T00:56:50.458Z,9.68
2023-04-22T00:59:18.337Z,9.52
2023-04-22T01:05:04.023Z,9.25
2023-04-22T01:13:13.747Z,9.23
2023-04-22T01:15:46.700Z,9.63
2023-04-22T01:18:13.411Z,9.80
2023-04-22T01:20:44.552Z,9.63
2023-04-22T01:23:21.147Z,9.45
2023-04-22T01:25:51.898Z,10.43
2023-04-22T01:28:19.064Z,9.52
2023-04-22T01:30:52.106Z,9.35
2023-04-22T01:33:38.750Z,9.45
2023-04-22T01:36:14.225Z,9.10
2023-04-22T01:38:50.851Z,9.20
2023-04-22T01:41:21.180Z,9.48
2023-04-22T01:46:31.722Z,8.77
2023-04-22T01:48:59.595Z,8.85
2023-04-22T01:51:29.807Z,9.07
2023-04-22T01:54:08.598Z,9.38
2023-04-22T01:56:39.391Z,9.52
2023-04-22T01:59:09.105Z,8.88
2023-04-22T02:01:43.235Z,9.23
2023-04-22T02:04:22.042Z,8.13
2023-04-22T02:06:54.090Z,8.70
2023-04-22T02:09:22.320Z,8.93
2023-04-22T02:12:03.743Z,8.95
2023-04-22T02:14:35.517Z,8.90
2023-04-22T02:17:03.227Z,8.63
2023-04-22T02:19:32.578Z,8.15
2023-04-22T02:22:24.595Z,7.93
2023-04-22T02:24:59.120Z,8.25
2023-04-22T02:27:29.742Z,8.73
2023-04-22T02:30:02.660Z,7.97
2023-04-22T02:35:24.422Z,8.10
2023-04-22T02:40:33.800Z,7.90
2023-04-22T02:43:01.345Z,7.30
2023-04-22T02:45:37.976Z,7.88
2023-04-22T02:48:07.994Z,7.07
2023-04-22T02:50:36.720Z,7.15
2023-04-22T02:53:11.752Z,7.60
2023-04-22T02:55:49.513Z,7.50
2023-04-22T02:58:26.886Z,7.85
2023-04-22T03:03:48.354Z,7.28
2023-04-22T03:06:18.259Z,7.05
2023-04-22T03:08:45.829Z,7.07
2023-04-22T03:13:56.965Z,7.35
2023-04-22T03:16:25.257Z,7.50
2023-04-22T03:19:00.057Z,6.78
2023-04-22T03:21:35.268Z,6.45
2023-04-22T03:24:05.478Z,6.63
2023-04-22T03:26:42.504Z,6.40
2023-04-22T03:29:17.614Z,7.28
2023-04-22T03:31:58.522Z,6.25
2023-04-22T03:34:45.887Z,6.55
2023-04-22T03:39:58.057Z,7.88
2023-04-22T03:42:34.724Z,7.10
2023-04-22T03:45:03.100Z,7.45
2023-04-22T03:47:31.690Z,7.57
2023-04-22T03:49:59.454Z,7.50
2023-04-22T03:52:38.728Z,7.68
2023-04-22T03:55:10.953Z,7.03
2023-04-22T03:57:39.511Z,6.93
2023-04-22T04:00:08.904Z,7.20
2023-04-22T04:02:35.748Z,6.75
2023-04-22T04:05:13.984Z,6.13
2023-04-22T04:07:41.358Z,6.15
2023-04-22T04:10:13.840Z,6.60
2023-04-22T04:12:41.591Z,6.13
2023-04-22T04:15:09.947Z,6.80
2023-04-22T04:17:37.827Z,6.43
2023-04-22T04:20:04.972Z,6.72
2023-04-22T04:22:34.616Z,6.60
2023-04-22T04:25:03.630Z,7.10
2023-04-22T04:27:30.295Z,6.65
2023-04-22T04:30:05.728Z,6.78
2023-04-22T04:32:37.114Z,6.93
2023-04-22T04:35:06.807Z,6.90
2023-04-22T04:37:47.014Z,6.37
2023-04-22T04:40:15.536Z,6.85
2023-04-22T04:42:43.630Z,6.75
2023-04-22T04:45:14.921Z,6.72
2023-04-22T04:47:47.067Z,6.50
2023-04-22T04:50:21.188Z,6.15
2023-04-22T04:52:50.825Z,6.82
2023-04-22T04:55:22.222Z,6.72
2023-04-22T04:57:50.511Z,6.67
2023-04-22T05:00:22.890Z,7.10
2023-04-22T05:02:54.184Z,6.82
2023-04-22T05:05:21.269Z,7.90
2023-04-22T05:07:48.468Z,6.60
2023-04-22T05:10:16.285Z,7.20
2023-04-22T05:12:51.010Z,6.60
2023-04-22T05:15:24.757Z,6.80
2023-04-22T05:17:51.828Z,6.80
2023-04-22T05:23:09.073Z,6.53
2023-04-22T05:25:52.793Z,6.25
2023-04-22T05:28:21.958Z,6.32
2023-04-22T05:33:35.771Z,6.43
2023-04-22T05:36:03.056Z,6.07
2023-04-22T05:41:14.452Z,6.20
2023-04-22T05:43:46.856Z,6.60
2023-04-22T05:46:24.273Z,6.22
2023-04-22T05:49:00.283Z,6.50
2023-04-22T05:54:16.000Z,6.20
2023-04-22T05:56:53.683Z,6.88
2023-04-22T06:02:03.386Z,6.78
2023-04-22T06:04:37.349Z,6.53
2023-04-22T06:12:20.381Z,6.63
2023-04-22T06:14:50.425Z,6.85
2023-04-22T06:20:05.309Z,5.30
2023-04-22T06:22:39.096Z,5.88
2023-04-22T06:25:38.121Z,5.10
2023-04-22T06:28:14.831Z,5.35
2023-04-22T06:30:42.288Z,5.38
2023-04-22T06:33:13.172Z,6.03
2023-04-22T06:38:37.980Z,5.70
2023-04-22T06:41:15.468Z,5.78
2023-04-22T06:43:46.390Z,5.75
2023-04-22T06:46:16.387Z,5.93
2023-04-22T06:48:47.632Z,5.88
2023-04-22T06:51:34.483Z,6.22
2023-04-22T06:54:06.003Z,5.47
2023-04-22T06:56:38.850Z,5.68
2023-04-22T07:02:41.348Z,5.32
2023-04-22T07:05:11.784Z,5.20
2023-04-22T07:07:41.471Z,4.85
2023-04-22T07:13:04.884Z,5.40
2023-04-22T07:15:39.607Z,5.10
2023-04-22T07:18:19.145Z,5.60
2023-04-22T07:20:49.265Z,4.72
2023-04-22T07:26:24.498Z,4.80
2023-04-22T07:31:44.376Z,3.80
2023-04-22T07:39:55.430Z,3.88
2023-04-22T07:42:23.918Z,3.80
2023-04-22T07:47:53.528Z,4.90
2023-04-22T07:50:33.179Z,4.18
2023-04-22T07:56:33.732Z,3.97
2023-04-22T07:59:03.961Z,3.90
2023-04-22T08:05:19.123Z,3.80
2023-04-22T08:07:51.022Z,3.80
2023-04-22T08:10:39.579Z,3.90
2023-04-22T08:22:10.687Z,3.42
2023-04-22T08:24:43.566Z,3.78
2023-04-22T08:27:36.780Z,3.58
2023-04-22T08:36:02.940Z,3.10
2023-04-22T08:38:45.489Z,3.67
2023-04-22T08:41:16.486Z,3.63
2023-04-22T08:47:03.081Z,3.70
2023-04-22T08:49:56.753Z,3.53
2023-04-22T08:52:39.686Z,3.42
2023-04-22T08:55:13.859Z,3.47
2023-04-22T08:57:53.314Z,3.83
2023-04-22T09:00:27.241Z,3.33
2023-04-22T09:03:00.338Z,3.47
2023-04-22T09:05:33.129Z,2.75
2023-04-22T09:11:00.120Z,3.00
2023-04-22T09:16:08.168Z,2.60
2023-04-22T09:18:50.082Z,2.63
2023-04-22T09:26:58.485Z,2.85
2023-04-22T09:29:37.140Z,2.38
2023-04-22T09:32:26.117Z,2.55
2023-04-22T09:35:17.029Z,2.47
2023-04-22T09:40:27.638Z,2.60
2023-04-22T09:43:05.569Z,2.85
2023-04-22T09:46:08.313Z,2.38
2023-04-22T09:52:04.911Z,2.47
2023-04-22T09:54:35.010Z,2.97
2023-04-22T09:59:48.210Z,2.60
2023-04-22T10:02:17.954Z,2.50
2023-04-22T10:05:05.698Z,2.50
2023-04-22T10:07:41.873Z,2.60
2023-04-22T10:10:11.590Z,2.20
2023-04-22T10:12:46.486Z,2.25
2023-04-22T10:20:52.424Z,2.17
2023-04-22T10:23:24.937Z,2.30
2023-04-22T10:26:09.604Z,2.30
2023-04-22T10:28:45.950Z,1.90
2023-04-22T10:34:18.825Z,2.22
2023-04-22T10:37:25.585Z,1.90
2023-04-22T10:43:07.110Z,2.10
2023-04-22T10:45:44.236Z,1.80
2023-04-22T10:48:39.362Z,2.33
2023-04-22T10:54:59.864Z,1.85
2023-04-22T10:57:43.657Z,2.05
2023-04-22T11:00:42.154Z,2.60
2023-04-22T11:03:30.911Z,2.30
2023-04-22T11:09:17.320Z,2.40
2023-04-22T11:20:52.424Z,2.20
2023-04-22T11:23:39.304Z,2.38
2023-04-22T11:28:59.117Z,1.83
2023-04-22T11:31:33.138Z,2.55
2023-04-22T11:34:03.501Z,2.70
2023-04-22T11:39:19.381Z,2.13
2023-04-22T11:41:48.739Z,2.00
2023-04-22T11:44:24.741Z,1.92
2023-04-22T11:47:02.147Z,1.85
2023-04-22T11:50:13.917Z,2.30
2023-04-22T11:53:05.187Z,2.08
2023-04-22T11:58:22.475Z,2.03
2023-04-22T12:03:44.217Z,1.88
2023-04-22T12:06:18.043Z,2.00
2023-04-22T12:17:52.154Z,2.50
2023-04-22T12:23:05.872Z,2.17
2023-04-22T12:25:35.589Z,1.83
2023-04-22T12:28:09.081Z,1.75
2023-04-22T12:30:45.459Z,2.10
2023-04-22T12:33:17.542Z,1.90
2023-04-22T12:35:48.961Z,1.60
2023-04-22T12:43:45.962Z,1.52
2023-04-22T12:49:21.823Z,1.80
2023-04-22T12:51:49.303Z,1.88
2023-04-22T12:54:30.065Z,1.40
2023-04-22T12:59:44.977Z,1.80
2023-04-22T13:02:16.009Z,1.48
2023-04-22T13:04:43.190Z,1.80
2023-04-22T13:07:10.206Z,1.95
2023-04-22T13:12:17.728Z,2.10
2023-04-22T13:14:48.482Z,2.00
2023-04-22T13:17:18.359Z,1.77
2023-04-22T13:19:53.721Z,1.90
2023-04-22T13:22:21.586Z,2.50
2023-04-22T13:24:55.171Z,1.90
2023-04-22T13:27:28.691Z,1.80
2023-04-22T13:30:03.093Z,2.05
2023-04-22T13:35:39.485Z,1.95
2023-04-22T13:38:11.237Z,2.05
2023-04-22T13:40:43.155Z,2.25
2023-04-22T13:43:12.796Z,2.03
2023-04-22T13:45:44.822Z,2.67
2023-04-22T13:50:53.603Z,2.65
2023-04-22T13:53:22.981Z,2.20
2023-04-22T13:58:33.869Z,2.30
2023-04-22T14:01:04.240Z,2.50
2023-04-22T14:03:41.423Z,2.20
2023-04-22T14:06:13.775Z,2.42
2023-04-22T14:17:17.039Z,2.90
2023-04-22T14:19:48.848Z,2.70
2023-04-22T14:22:33.208Z,2.20
2023-04-22T14:25:07.328Z,2.28
2023-04-22T14:33:04.459Z,2.50
2023-04-22T14:38:42.829Z,2.20
2023-04-22T14:49:44.228Z,2.05
2023-04-22T14:52:58.001Z,3.05
2023-04-22T14:58:15.881Z,1.70
2023-04-22T15:00:55.097Z,2.70
2023-04-22T15:10:24.964Z,2.42
2023-04-22T15:13:17.628Z,2.05
2023-04-22T15:15:52.844Z,1.90
2023-04-22T15:21:18.197Z,2.13
2023-04-22T15:23:50.852Z,1.95
2023-04-22T15:32:57.073Z,2.50
2023-04-22T15:44:45.576Z,1.90
2023-04-22T15:50:18.151Z,2.03
2023-04-22T15:59:14.532Z,2.20
2023-04-22T16:01:47.586Z,2.30
2023-04-22T16:04:20.827Z,2.25
2023-04-22T16:06:54.632Z,2.35
2023-04-22T16:09:36.397Z,2.92
2023-04-22T16:14:54.373Z,2.60
2023-04-22T16:20:12.838Z,2.35
2023-04-22T16:23:09.209Z,2.40
2023-04-22T16:25:40.618Z,3.05
2023-04-22T16:28:16.050Z,1.90
2023-04-22T16:30:45.918Z,2.15
2023-04-22T16:33:23.068Z,1.98
2023-04-22T16:36:03.609Z,2.63
2023-04-22T16:39:16.664Z,3.42
2023-04-22T16:41:54.968Z,3.63
2023-04-22T16:44:52.645Z,3.63
2023-04-22T16:47:40.851Z,3.80
2023-04-22T16:50:14.760Z,3.15
2023-04-22T16:52:49.965Z,3.40
2023-04-22T16:58:12.394Z,3.10
2023-04-22T17:03:28.923Z,3.30
2023-04-22T17:11:42.254Z,2.25
2023-04-22T17:14:21.600Z,2.33
2023-04-22T17:16:58.552Z,2.40
2023-04-22T17:22:24.453Z,2.33
2023-04-22T17:24:58.658Z,2.38
2023-04-22T17:33:33.399Z,2.58
2023-04-22T17:36:05.286Z,2.90
2023-04-22T17:38:51.924Z,2.53
2023-04-22T17:44:16.649Z,4.05
2023-04-22T17:49:44.647Z,2.33
2023-04-22T17:52:22.142Z,2.00
2023-04-22T17:54:52.937Z,1.98
2023-04-22T18:00:27.378Z,2.00
2023-04-22T18:06:03.966Z,2.50
2023-04-22T18:08:33.072Z,2.10
2023-04-22T18:11:15.715Z,2.63
2023-04-22T18:13:43.062Z,2.70
2023-04-22T18:16:36.239Z,2.90
2023-04-22T18:22:35.033Z,2.20
2023-04-22T18:25:10.554Z,2.47
2023-04-22T18:27:40.640Z,2.72
2023-04-22T18:32:54.936Z,2.40
2023-04-22T18:35:39.002Z,2.90
2023-04-22T18:38:17.437Z,2.55
2023-04-22T18:41:02.400Z,3.40
2023-04-22T18:46:13.771Z,2.65
2023-04-22T18:48:49.661Z,2.45
2023-04-22T18:51:24.665Z,2.05
2023-04-22T18:53:55.456Z,2.70
2023-04-22T18:56:31.938Z,2.45
2023-04-22T18:59:03.266Z,2.20
2023-04-22T19:01:37.841Z,2.38
2023-04-22T19:04:06.402Z,2.35
2023-04-22T19:06:43.109Z,2.38
2023-04-22T19:09:16.226Z,2.00
2023-04-22T19:11:52.341Z,2.90
2023-04-22T19:14:31.728Z,2.50
2023-04-22T19:17:15.277Z,2.47
2023-04-22T19:19:45.976Z,2.60
2023-04-22T19:22:47.032Z,2.00
2023-04-22T19:25:22.544Z,2.50
2023-04-22T19:33:22.862Z,2.78
2023-04-22T19:36:00.283Z,2.90
2023-04-22T19:41:42.847Z,2.28
2023-04-22T19:47:16.993Z,2.40
2023-04-22T19:49:46.754Z,2.20
2023-04-22T19:55:16.375Z,2.60
2023-04-22T20:06:52.905Z,2.60
2023-04-22T20:16:09.139Z,2.30
2023-04-22T20:18:52.447Z,2.80
2023-04-22T20:24:36.998Z,2.40
2023-04-22T20:33:17.672Z,2.92
2023-04-22T20:36:00.422Z,3.22
2023-04-22T20:44:12.029Z,2.83
2023-04-22T20:52:06.408Z,2.90
2023-04-22T20:57:25.587Z,3.60
2023-04-22T20:59:55.310Z,3.28
2023-04-22T21:05:50.954Z,2.83
2023-04-22T21:14:37.112Z,3.20
2023-04-22T21:17:15.590Z,5.65
2023-04-22T21:19:57.534Z,4.10
2023-04-22T21:22:50.876Z,3.67
2023-04-22T21:25:35.243Z,3.80
2023-04-22T21:30:46.948Z,3.85
2023-04-22T21:33:16.171Z,3.58
2023-04-22T21:35:55.735Z,3.92
2023-04-22T21:38:23.616Z,3.90
2023-04-22T21:40:57.589Z,4.90
2023-04-22T21:43:30.315Z,4.35
2023-04-22T21:49:00.663Z,4.47
2023-04-22T21:54:39.797Z,4.13
2023-04-22T21:57:17.511Z,4.10
2023-04-22T21:59:51.810Z,4.18
2023-04-22T22:25:02.041Z,4.68
2023-04-22T22:27:35.457Z,4.47
2023-04-22T22:32:55.346Z,4.65
2023-04-22T22:35:36.919Z,5.38
2023-04-22T22:38:10.712Z,4.70
2023-04-22T22:43:23.192Z,4.30
2023-04-22T22:46:20.234Z,4.85
2023-04-22T22:48:52.403Z,4.57
2023-04-22T22:59:41.817Z,4.10
2023-04-22T23:02:23.691Z,4.97
2023-04-22T23:04:56.238Z,4.10
2023-04-22T23:07:25.946Z,4.20
2023-04-22T23:10:17.405Z,4.00
2023-04-22T23:13:05.372Z,4.60
2023-04-22T23:15:38.363Z,4.60
2023-04-22T23:18:15.888Z,4.40
2023-04-22T23:20:53.489Z,4.75
2023-04-22T23:23:31.512Z,4.10
2023-04-22T23:26:04.199Z,4.53
2023-04-22T23:28:38.042Z,5.05
2023-04-22T23:31:19.809Z,4.30
2023-04-22T23:33:53.096Z,4.88
2023-04-22T23:36:28.871Z,4.50
2023-04-22T23:39:03.512Z,4.63
2023-04-22T23:41:33.005Z,5.63
2023-04-22T23:44:02.335Z,5.33
2023-04-22T23:46:32.127Z,6.05
2023-04-22T23:49:02.153Z,5.43
2023-04-22T23:54:20.926Z,5.55
2023-04-22T23:56:50.293Z,5.63
2023-04-22T23:59:22.193Z,5.32
